sensor_id;sensor_type;location;lat;lon;timestamp;pressure;altitude;pressure_sealevel;temperature;humidity
17711;BME280;8975;57.718;12.134;2022-10-16T00:01:46;115940.22;;;-142.68;56.93
17711;BME280;8975;57.718;12.134;2022-10-16T00:04:12;115940.22;;;-142.68;56.35
17711;BME280;8975;57.718;12.134;2022-10-16T00:06:38;115940.22;;;-142.68;56.76
17711;BME280;8975;57.718;12.134;2022-10-16T00:09:04;115940.22;;;-142.68;56.15
17711;BME280;8975;57.718;12.134;2022-10-16T00:11:32;115940.22;;;-142.68;56.24
17711;BME280;8975;57.718;12.134;2022-10-16T00:14:00;115940.22;;;-142.68;56.23
17711;BME280;8975;57.718;12.134;2022-10-16T00:16:28;115940.22;;;-142.68;55.64
17711;BME280;8975;57.718;12.134;2022-10-16T00:18:54;115940.22;;;-142.68;56.21
17711;BME280;8975;57.718;12.134;2022-10-16T00:21:25;115940.22;;;-142.68;55.44
17711;BME280;8975;57.718;12.134;2022-10-16T00:23:53;115940.22;;;-142.68;55.99
17711;BME280;8975;57.718;12.134;2022-10-16T00:26:20;115940.22;;;-142.68;55.57
17711;BME280;8975;57.718;12.134;2022-10-16T00:28:50;115940.22;;;-142.68;55.60
17711;BME280;8975;57.718;12.134;2022-10-16T00:31:17;115940.22;;;-142.68;55.33
17711;BME280;8975;57.718;12.134;2022-10-16T00:33:43;115940.22;;;-142.68;55.28
17711;BME280;8975;57.718;12.134;2022-10-16T00:36:12;115940.22;;;-142.68;55.55
17711;BME280;8975;57.718;12.134;2022-10-16T00:38:38;115940.22;;;-142.68;56.07
17711;BME280;8975;57.718;12.134;2022-10-16T00:41:06;115940.22;;;-142.68;55.43
17711;BME280;8975;57.718;12.134;2022-10-16T00:43:43;115940.22;;;-142.68;55.26
17711;BME280;8975;57.718;12.134;2022-10-16T00:46:27;115940.22;;;-142.68;55.64
17711;BME280;8975;57.718;12.134;2022-10-16T00:48:59;115940.22;;;-142.68;55.19
17711;BME280;8975;57.718;12.134;2022-10-16T00:51:30;115940.22;;;-142.68;55.14
17711;BME280;8975;57.718;12.134;2022-10-16T00:53:59;115940.22;;;-142.68;55.70
17711;BME280;8975;57.718;12.134;2022-10-16T00:56:25;115940.22;;;-142.68;54.88
17711;BME280;8975;57.718;12.134;2022-10-16T00:58:50;115940.22;;;-142.68;55.96
17711;BME280;8975;57.718;12.134;2022-10-16T01:01:16;115940.22;;;-142.68;55.00
17711;BME280;8975;57.718;12.134;2022-10-16T01:03:41;115940.22;;;-142.68;54.08
17711;BME280;8975;57.718;12.134;2022-10-16T01:14:08;115940.22;;;-142.68;54.00
17711;BME280;8975;57.718;12.134;2022-10-16T01:16:53;115940.22;;;-142.68;54.07
17711;BME280;8975;57.718;12.134;2022-10-16T01:19:51;115940.22;;;-142.68;54.04
17711;BME280;8975;57.718;12.134;2022-10-16T01:22:26;115940.22;;;-142.68;53.38
17711;BME280;8975;57.718;12.134;2022-10-16T01:25:00;115940.22;;;-142.68;53.00
17711;BME280;8975;57.718;12.134;2022-10-16T01:27:30;115940.22;;;-142.68;52.67
17711;BME280;8975;57.718;12.134;2022-10-16T01:30:17;115940.22;;;-142.68;52.61
17711;BME280;8975;57.718;12.134;2022-10-16T01:32:53;115940.22;;;-142.68;52.59
17711;BME280;8975;57.718;12.134;2022-10-16T01:35:27;115940.22;;;-142.68;52.53
17711;BME280;8975;57.718;12.134;2022-10-16T01:38:15;115940.22;;;-142.68;52.77
17711;BME280;8975;57.718;12.134;2022-10-16T01:40:46;115940.22;;;-142.68;52.75
17711;BME280;8975;57.718;12.134;2022-10-16T01:43:17;115940.22;;;-142.68;52.50
17711;BME280;8975;57.718;12.134;2022-10-16T01:45:44;115940.22;;;-142.68;53.16
17711;BME280;8975;57.718;12.134;2022-10-16T01:48:16;115940.22;;;-142.68;52.68
17711;BME280;8975;57.718;12.134;2022-10-16T01:50:44;115940.22;;;-142.68;52.80
17711;BME280;8975;57.718;12.134;2022-10-16T01:53:15;115940.22;;;-142.68;52.95
17711;BME280;8975;57.718;12.134;2022-10-16T01:55:44;115940.22;;;-142.68;52.93
17711;BME280;8975;57.718;12.134;2022-10-16T01:58:13;115940.22;;;-142.68;52.38
17711;BME280;8975;57.718;12.134;2022-10-16T02:00:41;115940.22;;;-142.68;52.49
17711;BME280;8975;57.718;12.134;2022-10-16T02:03:08;115940.22;;;-142.68;52.28
17711;BME280;8975;57.718;12.134;2022-10-16T02:05:49;115940.22;;;-142.68;52.51
17711;BME280;8975;57.718;12.134;2022-10-16T02:08:15;115940.22;;;-142.68;52.32
17711;BME280;8975;57.718;12.134;2022-10-16T02:10:41;115940.22;;;-142.68;52.56
17711;BME280;8975;57.718;12.134;2022-10-16T02:13:15;115940.22;;;-142.68;52.44
17711;BME280;8975;57.718;12.134;2022-10-16T02:15:42;115940.22;;;-142.68;52.77
17711;BME280;8975;57.718;12.134;2022-10-16T02:18:08;115940.22;;;-142.68;52.27
17711;BME280;8975;57.718;12.134;2022-10-16T02:20:42;115940.22;;;-142.68;52.52
17711;BME280;8975;57.718;12.134;2022-10-16T02:23:17;115940.22;;;-142.68;52.12
17711;BME280;8975;57.718;12.134;2022-10-16T02:25:45;115940.22;;;-142.68;52.58
17711;BME280;8975;57.718;12.134;2022-10-16T02:28:22;115940.22;;;-142.68;52.12
17711;BME280;8975;57.718;12.134;2022-10-16T02:31:10;115940.22;;;-142.68;52.27
17711;BME280;8975;57.718;12.134;2022-10-16T02:33:38;115940.22;;;-142.68;52.32
17711;BME280;8975;57.718;12.134;2022-10-16T02:36:05;115940.22;;;-142.68;52.33
17711;BME280;8975;57.718;12.134;2022-10-16T02:38:31;115940.22;;;-142.68;52.39
17711;BME280;8975;57.718;12.134;2022-10-16T02:40:57;115940.22;;;-142.68;52.21
17711;BME280;8975;57.718;12.134;2022-10-16T02:43:24;115940.22;;;-142.68;52.29
17711;BME280;8975;57.718;12.134;2022-10-16T02:45:50;115940.22;;;-142.68;52.56
17711;BME280;8975;57.718;12.134;2022-10-16T02:48:15;115940.22;;;-142.68;52.43
17711;BME280;8975;57.718;12.134;2022-10-16T02:50:40;115940.22;;;-142.68;52.57
17711;BME280;8975;57.718;12.134;2022-10-16T02:53:06;115940.22;;;-142.68;52.59
17711;BME280;8975;57.718;12.134;2022-10-16T02:55:31;115940.22;;;-142.68;53.00
17711;BME280;8975;57.718;12.134;2022-10-16T02:57:57;115940.22;;;-142.68;52.75
17711;BME280;8975;57.718;12.134;2022-10-16T03:00:23;115940.22;;;-142.68;52.87
17711;BME280;8975;57.718;12.134;2022-10-16T03:02:49;115940.22;;;-142.68;53.04
17711;BME280;8975;57.718;12.134;2022-10-16T03:05:15;115940.22;;;-142.68;53.04
17711;BME280;8975;57.718;12.134;2022-10-16T03:07:40;115940.22;;;-142.68;53.16
17711;BME280;8975;57.718;12.134;2022-10-16T03:10:06;115940.22;;;-142.68;52.97
17711;BME280;8975;57.718;12.134;2022-10-16T03:12:32;115940.22;;;-142.68;52.71
17711;BME280;8975;57.718;12.134;2022-10-16T03:14:57;115940.22;;;-142.68;52.64
17711;BME280;8975;57.718;12.134;2022-10-16T03:17:24;115940.22;;;-142.68;52.73
17711;BME280;8975;57.718;12.134;2022-10-16T03:19:50;115940.22;;;-142.68;52.53
17711;BME280;8975;57.718;12.134;2022-10-16T03:22:15;115940.22;;;-142.68;52.68
17711;BME280;8975;57.718;12.134;2022-10-16T03:24:41;115940.22;;;-142.68;52.65
17711;BME280;8975;57.718;12.134;2022-10-16T03:27:08;115940.22;;;-142.68;52.82
17711;BME280;8975;57.718;12.134;2022-10-16T03:29:33;115940.22;;;-142.68;52.46
17711;BME280;8975;57.718;12.134;2022-10-16T03:31:59;115940.22;;;-142.68;52.51
17711;BME280;8975;57.718;12.134;2022-10-16T03:34:25;115940.22;;;-142.68;52.47
17711;BME280;8975;57.718;12.134;2022-10-16T03:36:51;115940.22;;;-142.68;52.28
17711;BME280;8975;57.718;12.134;2022-10-16T03:39:16;115940.22;;;-142.68;52.54
17711;BME280;8975;57.718;12.134;2022-10-16T03:41:42;115940.22;;;-142.68;52.13
17711;BME280;8975;57.718;12.134;2022-10-16T03:44:07;115940.22;;;-142.68;52.33
17711;BME280;8975;57.718;12.134;2022-10-16T03:46:33;115940.22;;;-142.68;51.90
17711;BME280;8975;57.718;12.134;2022-10-16T03:48:58;115940.22;;;-142.68;51.95
17711;BME280;8975;57.718;12.134;2022-10-16T03:51:23;115940.22;;;-142.68;52.11
17711;BME280;8975;57.718;12.134;2022-10-16T03:53:49;115940.22;;;-142.68;51.99
17711;BME280;8975;57.718;12.134;2022-10-16T03:56:14;115940.22;;;-142.68;52.05
17711;BME280;8975;57.718;12.134;2022-10-16T03:58:40;115940.22;;;-142.68;51.64
17711;BME280;8975;57.718;12.134;2022-10-16T04:01:05;115940.22;;;-142.68;51.89
17711;BME280;8975;57.718;12.134;2022-10-16T04:03:31;115940.22;;;-142.68;51.53
17711;BME280;8975;57.718;12.134;2022-10-16T04:05:56;115940.22;;;-142.68;51.75
17711;BME280;8975;57.718;12.134;2022-10-16T04:08:22;115940.22;;;-142.68;51.76
17711;BME280;8975;57.718;12.134;2022-10-16T04:10:48;115940.22;;;-142.68;51.72
17711;BME280;8975;57.718;12.134;2022-10-16T04:13:13;115940.22;;;-142.68;51.83
17711;BME280;8975;57.718;12.134;2022-10-16T04:15:39;115940.22;;;-142.68;51.72
17711;BME280;8975;57.718;12.134;2022-10-16T04:18:05;115940.22;;;-142.68;51.70
17711;BME280;8975;57.718;12.134;2022-10-16T04:20:31;115940.22;;;-142.68;52.10
17711;BME280;8975;57.718;12.134;2022-10-16T04:22:56;115940.22;;;-142.68;51.83
17711;BME280;8975;57.718;12.134;2022-10-16T04:25:22;115940.22;;;-142.68;51.81
17711;BME280;8975;57.718;12.134;2022-10-16T04:27:47;115940.22;;;-142.68;51.92
17711;BME280;8975;57.718;12.134;2022-10-16T04:30:13;115940.22;;;-142.68;51.93
17711;BME280;8975;57.718;12.134;2022-10-16T04:32:38;115940.22;;;-142.68;52.01
17711;BME280;8975;57.718;12.134;2022-10-16T04:35:04;115940.22;;;-142.68;52.13
17711;BME280;8975;57.718;12.134;2022-10-16T04:37:30;115940.22;;;-142.68;51.90
17711;BME280;8975;57.718;12.134;2022-10-16T04:39:55;115940.22;;;-142.68;51.74
17711;BME280;8975;57.718;12.134;2022-10-16T04:42:21;115940.22;;;-142.68;51.84
17711;BME280;8975;57.718;12.134;2022-10-16T04:44:46;115940.22;;;-142.68;52.11
17711;BME280;8975;57.718;12.134;2022-10-16T04:47:12;115940.22;;;-142.68;51.91
17711;BME280;8975;57.718;12.134;2022-10-16T04:49:38;115940.22;;;-142.68;52.08
17711;BME280;8975;57.718;12.134;2022-10-16T04:52:04;115940.22;;;-142.68;52.31
17711;BME280;8975;57.718;12.134;2022-10-16T04:54:29;115940.22;;;-142.68;52.00
17711;BME280;8975;57.718;12.134;2022-10-16T04:56:55;115940.22;;;-142.68;51.87
17711;BME280;8975;57.718;12.134;2022-10-16T04:59:21;115940.22;;;-142.68;52.09
17711;BME280;8975;57.718;12.134;2022-10-16T05:01:47;115940.22;;;-142.68;51.91
17711;BME280;8975;57.718;12.134;2022-10-16T05:04:14;115940.22;;;-142.68;52.17
17711;BME280;8975;57.718;12.134;2022-10-16T05:06:40;115940.22;;;-142.68;51.94
17711;BME280;8975;57.718;12.134;2022-10-16T05:09:06;115940.22;;;-142.68;52.09
17711;BME280;8975;57.718;12.134;2022-10-16T05:11:31;115940.22;;;-142.68;51.99
17711;BME280;8975;57.718;12.134;2022-10-16T05:13:57;115940.22;;;-142.68;51.98
17711;BME280;8975;57.718;12.134;2022-10-16T05:16:22;115940.22;;;-142.68;51.25
17711;BME280;8975;57.718;12.134;2022-10-16T05:18:48;115940.22;;;-142.68;51.90
17711;BME280;8975;57.718;12.134;2022-10-16T05:21:13;115940.22;;;-142.68;52.17
17711;BME280;8975;57.718;12.134;2022-10-16T05:23:39;115940.22;;;-142.68;52.37
17711;BME280;8975;57.718;12.134;2022-10-16T05:26:04;115940.22;;;-142.68;52.29
17711;BME280;8975;57.718;12.134;2022-10-16T05:28:31;115940.22;;;-142.68;52.09
17711;BME280;8975;57.718;12.134;2022-10-16T05:30:57;115940.22;;;-142.68;52.50
17711;BME280;8975;57.718;12.134;2022-10-16T05:33:25;115940.22;;;-142.68;52.64
17711;BME280;8975;57.718;12.134;2022-10-16T05:35:51;115940.22;;;-142.68;52.53
17711;BME280;8975;57.718;12.134;2022-10-16T05:38:17;115940.22;;;-142.68;52.45
17711;BME280;8975;57.718;12.134;2022-10-16T05:40:43;115940.22;;;-142.68;52.82
17711;BME280;8975;57.718;12.134;2022-10-16T05:43:09;115940.22;;;-142.68;52.95
17711;BME280;8975;57.718;12.134;2022-10-16T05:45:34;115940.22;;;-142.68;53.22
17711;BME280;8975;57.718;12.134;2022-10-16T05:48:00;115940.22;;;-142.68;53.34
17711;BME280;8975;57.718;12.134;2022-10-16T05:50:26;115940.22;;;-142.68;53.14
17711;BME280;8975;57.718;12.134;2022-10-16T05:52:52;115940.22;;;-142.68;53.72
17711;BME280;8975;57.718;12.134;2022-10-16T05:55:17;115940.22;;;-142.68;53.78
17711;BME280;8975;57.718;12.134;2022-10-16T05:57:42;115940.22;;;-142.68;53.70
17711;BME280;8975;57.718;12.134;2022-10-16T06:00:09;115940.22;;;-142.68;53.63
17711;BME280;8975;57.718;12.134;2022-10-16T06:02:34;115940.22;;;-142.68;53.91
17711;BME280;8975;57.718;12.134;2022-10-16T06:05:00;115940.22;;;-142.68;54.26
17711;BME280;8975;57.718;12.134;2022-10-16T06:07:25;115940.22;;;-142.68;54.02
17711;BME280;8975;57.718;12.134;2022-10-16T06:09:52;115940.22;;;-142.68;53.83
17711;BME280;8975;57.718;12.134;2022-10-16T06:12:18;115940.22;;;-142.68;54.39
17711;BME280;8975;57.718;12.134;2022-10-16T06:14:45;115940.22;;;-142.68;54.37
17711;BME280;8975;57.718;12.134;2022-10-16T06:17:13;115940.22;;;-142.68;54.46
17711;BME280;8975;57.718;12.134;2022-10-16T06:19:39;115940.22;;;-142.68;54.05
17711;BME280;8975;57.718;12.134;2022-10-16T06:22:04;115940.22;;;-142.68;53.81
17711;BME280;8975;57.718;12.134;2022-10-16T06:24:30;115940.22;;;-142.68;54.10
17711;BME280;8975;57.718;12.134;2022-10-16T06:26:55;115940.22;;;-142.68;53.86
17711;BME280;8975;57.718;12.134;2022-10-16T06:29:20;115940.22;;;-142.68;53.53
17711;BME280;8975;57.718;12.134;2022-10-16T06:31:46;115940.22;;;-142.68;53.55
17711;BME280;8975;57.718;12.134;2022-10-16T06:34:12;115940.22;;;-142.68;53.76
17711;BME280;8975;57.718;12.134;2022-10-16T06:36:38;115940.22;;;-142.68;53.73
17711;BME280;8975;57.718;12.134;2022-10-16T06:39:04;115940.22;;;-142.68;53.57
17711;BME280;8975;57.718;12.134;2022-10-16T06:41:31;115940.22;;;-142.68;53.78
17711;BME280;8975;57.718;12.134;2022-10-16T06:43:57;115940.22;;;-142.68;53.84
17711;BME280;8975;57.718;12.134;2022-10-16T06:46:23;115940.22;;;-142.68;53.93
17711;BME280;8975;57.718;12.134;2022-10-16T06:48:49;115940.22;;;-142.68;54.39
17711;BME280;8975;57.718;12.134;2022-10-16T06:51:20;115940.22;;;-142.68;54.31
17711;BME280;8975;57.718;12.134;2022-10-16T06:53:47;115940.22;;;-142.68;54.87
17711;BME280;8975;57.718;12.134;2022-10-16T06:56:20;115940.22;;;-142.68;54.84
17711;BME280;8975;57.718;12.134;2022-10-16T06:58:47;115940.22;;;-142.68;54.61
17711;BME280;8975;57.718;12.134;2022-10-16T07:01:14;115940.22;;;-142.68;54.92
17711;BME280;8975;57.718;12.134;2022-10-16T07:03:41;115940.22;;;-142.68;54.81
17711;BME280;8975;57.718;12.134;2022-10-16T07:06:08;115940.22;;;-142.68;54.64
17711;BME280;8975;57.718;12.134;2022-10-16T07:08:35;115940.22;;;-142.68;54.55
17711;BME280;8975;57.718;12.134;2022-10-16T07:11:05;115940.22;;;-142.68;55.04
17711;BME280;8975;57.718;12.134;2022-10-16T07:13:35;115940.22;;;-142.68;54.94
17711;BME280;8975;57.718;12.134;2022-10-16T07:16:21;115940.22;;;-142.68;54.80
17711;BME280;8975;57.718;12.134;2022-10-16T07:18:47;115940.22;;;-142.68;54.44
17711;BME280;8975;57.718;12.134;2022-10-16T07:21:19;115940.22;;;-142.68;55.04
17711;BME280;8975;57.718;12.134;2022-10-16T07:23:49;115940.22;;;-142.68;55.19
17711;BME280;8975;57.718;12.134;2022-10-16T07:26:15;115940.22;;;-142.68;55.03
17711;BME280;8975;57.718;12.134;2022-10-16T07:28:42;115940.22;;;-142.68;55.01
17711;BME280;8975;57.718;12.134;2022-10-16T07:31:11;115940.22;;;-142.68;54.96
17711;BME280;8975;57.718;12.134;2022-10-16T07:33:38;115940.22;;;-142.68;54.87
17711;BME280;8975;57.718;12.134;2022-10-16T07:36:05;115940.22;;;-142.68;55.09
17711;BME280;8975;57.718;12.134;2022-10-16T07:38:30;115940.22;;;-142.68;55.62
17711;BME280;8975;57.718;12.134;2022-10-16T07:41:06;115940.22;;;-142.68;55.64
17711;BME280;8975;57.718;12.134;2022-10-16T07:43:33;115940.22;;;-142.68;55.30
17711;BME280;8975;57.718;12.134;2022-10-16T07:45:59;115940.22;;;-142.68;55.28
17711;BME280;8975;57.718;12.134;2022-10-16T07:48:27;115940.22;;;-142.68;55.90
17711;BME280;8975;57.718;12.134;2022-10-16T07:50:57;115940.22;;;-142.68;55.53
17711;BME280;8975;57.718;12.134;2022-10-16T07:53:23;115940.22;;;-142.68;55.45
17711;BME280;8975;57.718;12.134;2022-10-16T07:55:48;115940.22;;;-142.68;55.64
17711;BME280;8975;57.718;12.134;2022-10-16T07:58:14;115940.22;;;-142.68;54.83
17711;BME280;8975;57.718;12.134;2022-10-16T08:00:39;115940.22;;;-142.68;54.88
17711;BME280;8975;57.718;12.134;2022-10-16T08:03:04;115940.22;;;-142.68;54.84
17711;BME280;8975;57.718;12.134;2022-10-16T08:05:31;115940.22;;;-142.68;55.18
17711;BME280;8975;57.718;12.134;2022-10-16T08:07:58;115940.22;;;-142.68;55.57
17711;BME280;8975;57.718;12.134;2022-10-16T08:10:25;115940.22;;;-142.68;55.69
17711;BME280;8975;57.718;12.134;2022-10-16T08:12:52;115940.22;;;-142.68;55.26
17711;BME280;8975;57.718;12.134;2022-10-16T08:15:18;115940.22;;;-142.68;55.10
17711;BME280;8975;57.718;12.134;2022-10-16T08:17:44;115940.22;;;-142.68;55.31
17711;BME280;8975;57.718;12.134;2022-10-16T08:20:10;115940.22;;;-142.68;54.94
17711;BME280;8975;57.718;12.134;2022-10-16T08:22:36;115940.22;;;-142.68;54.83
17711;BME280;8975;57.718;12.134;2022-10-16T08:25:02;115940.22;;;-142.68;54.29
17711;BME280;8975;57.718;12.134;2022-10-16T08:27:34;115940.22;;;-142.68;55.56
17711;BME280;8975;57.718;12.134;2022-10-16T08:29:59;115940.22;;;-142.68;54.91
17711;BME280;8975;57.718;12.134;2022-10-16T08:32:24;115940.22;;;-142.68;54.31
17711;BME280;8975;57.718;12.134;2022-10-16T08:34:50;115940.22;;;-142.68;54.21
17711;BME280;8975;57.718;12.134;2022-10-16T08:37:15;115940.22;;;-142.68;54.46
17711;BME280;8975;57.718;12.134;2022-10-16T08:39:41;115940.22;;;-142.68;54.26
17711;BME280;8975;57.718;12.134;2022-10-16T08:42:18;115940.22;;;-142.68;54.47
17711;BME280;8975;57.718;12.134;2022-10-16T08:50:26;115940.22;;;-142.68;54.07
17711;BME280;8975;57.718;12.134;2022-10-16T08:52:54;115940.22;;;-142.68;53.97
17711;BME280;8975;57.718;12.134;2022-10-16T08:55:49;115940.22;;;-142.68;53.71
17711;BME280;8975;57.718;12.134;2022-10-16T08:58:20;115940.22;;;-142.68;54.24
17711;BME280;8975;57.718;12.134;2022-10-16T09:00:50;115940.22;;;-142.68;53.26
17711;BME280;8975;57.718;12.134;2022-10-16T09:11:57;115940.22;;;-142.68;52.67
17711;BME280;8975;57.718;12.134;2022-10-16T09:14:43;115940.22;;;-142.68;53.65
17711;BME280;8975;57.718;12.134;2022-10-16T09:17:26;115940.22;;;-142.68;53.32
17711;BME280;8975;57.718;12.134;2022-10-16T09:22:44;115940.22;;;-142.68;53.89
17711;BME280;8975;57.718;12.134;2022-10-16T09:25:18;115940.22;;;-142.68;54.30
17711;BME280;8975;57.718;12.134;2022-10-16T09:27:48;115940.22;;;-142.68;53.56
17711;BME280;8975;57.718;12.134;2022-10-16T09:30:17;115940.22;;;-142.68;54.41
17711;BME280;8975;57.718;12.134;2022-10-16T09:32:44;115940.22;;;-142.68;54.61
17711;BME280;8975;57.718;12.134;2022-10-16T09:35:19;115940.22;;;-142.68;54.23
17711;BME280;8975;57.718;12.134;2022-10-16T09:37:48;115940.22;;;-142.68;53.44
17711;BME280;8975;57.718;12.134;2022-10-16T09:43:01;115940.22;;;-142.68;53.73
17711;BME280;8975;57.718;12.134;2022-10-16T09:45:27;115940.22;;;-142.68;53.81
17711;BME280;8975;57.718;12.134;2022-10-16T09:47:53;115940.22;;;-142.68;53.80
17711;BME280;8975;57.718;12.134;2022-10-16T09:50:23;115940.22;;;-142.68;53.67
17711;BME280;8975;57.718;12.134;2022-10-16T09:52:50;115940.22;;;-142.68;53.79
17711;BME280;8975;57.718;12.134;2022-10-16T09:55:17;115940.22;;;-142.68;54.07
17711;BME280;8975;57.718;12.134;2022-10-16T09:57:53;115940.22;;;-142.68;53.60
17711;BME280;8975;57.718;12.134;2022-10-16T10:00:20;115940.22;;;-142.68;53.26
17711;BME280;8975;57.718;12.134;2022-10-16T10:02:46;115940.22;;;-142.68;54.57
17711;BME280;8975;57.718;12.134;2022-10-16T10:05:24;115940.22;;;-142.68;53.60
17711;BME280;8975;57.718;12.134;2022-10-16T10:07:58;115940.22;;;-142.68;53.14
17711;BME280;8975;57.718;12.134;2022-10-16T10:10:30;115940.22;;;-142.68;54.34
17711;BME280;8975;57.718;12.134;2022-10-16T10:12:56;115940.22;;;-142.68;54.43
17711;BME280;8975;57.718;12.134;2022-10-16T10:15:23;115940.22;;;-142.68;54.09
17711;BME280;8975;57.718;12.134;2022-10-16T10:20:35;115940.22;;;-142.68;53.78
17711;BME280;8975;57.718;12.134;2022-10-16T10:23:35;115940.22;;;-142.68;54.17
17711;BME280;8975;57.718;12.134;2022-10-16T10:26:16;115940.22;;;-142.68;54.10
17711;BME280;8975;57.718;12.134;2022-10-16T10:50:48;115940.22;;;-142.68;53.48
17711;BME280;8975;57.718;12.134;2022-10-16T10:56:24;115940.22;;;-142.68;55.56
17711;BME280;8975;57.718;12.134;2022-10-16T11:04:49;115940.22;;;-142.68;56.01
17711;BME280;8975;57.718;12.134;2022-10-16T11:07:25;115940.22;;;-142.68;55.73
17711;BME280;8975;57.718;12.134;2022-10-16T11:09:57;115940.22;;;-142.68;55.44
17711;BME280;8975;57.718;12.134;2022-10-16T11:12:28;115940.22;;;-142.68;55.87
17711;BME280;8975;57.718;12.134;2022-10-16T11:15:01;115940.22;;;-142.68;55.72
17711;BME280;8975;57.718;12.134;2022-10-16T11:17:31;115940.22;;;-142.68;56.36
17711;BME280;8975;57.718;12.134;2022-10-16T11:20:16;115940.22;;;-142.68;56.09
17711;BME280;8975;57.718;12.134;2022-10-16T11:25:31;115940.22;;;-142.68;55.27
17711;BME280;8975;57.718;12.134;2022-10-16T11:28:14;115940.22;;;-142.68;55.88
17711;BME280;8975;57.718;12.134;2022-10-16T11:30:49;115940.22;;;-142.68;56.18
17711;BME280;8975;57.718;12.134;2022-10-16T11:33:34;115940.22;;;-142.68;56.08
17711;BME280;8975;57.718;12.134;2022-10-16T11:36:26;115940.22;;;-142.68;55.88
17711;BME280;8975;57.718;12.134;2022-10-16T11:39:31;115940.22;;;-142.68;55.74
17711;BME280;8975;57.718;12.134;2022-10-16T11:44:48;115940.22;;;-142.68;56.21
17711;BME280;8975;57.718;12.134;2022-10-16T11:47:27;115940.22;;;-142.68;56.42
17711;BME280;8975;57.718;12.134;2022-10-16T11:50:36;115940.22;;;-142.68;55.73
17711;BME280;8975;57.718;12.134;2022-10-16T11:53:34;115940.22;;;-142.68;55.35
17711;BME280;8975;57.718;12.134;2022-10-16T11:56:04;115940.22;;;-142.68;55.46
17711;BME280;8975;57.718;12.134;2022-10-16T12:11:47;115940.22;;;-142.68;57.19
17711;BME280;8975;57.718;12.134;2022-10-16T12:16:39;115940.22;;;-142.68;54.93
17711;BME280;8975;57.718;12.134;2022-10-16T12:19:16;115940.22;;;-142.68;53.76
17711;BME280;8975;57.718;12.134;2022-10-16T12:21:43;115940.22;;;-142.68;54.12
17711;BME280;8975;57.718;12.134;2022-10-16T12:24:37;115940.22;;;-142.68;54.65
17711;BME280;8975;57.718;12.134;2022-10-16T12:27:05;115940.22;;;-142.68;53.73
17711;BME280;8975;57.718;12.134;2022-10-16T12:29:38;115940.22;;;-142.68;54.65
17711;BME280;8975;57.718;12.134;2022-10-16T12:34:47;115940.22;;;-142.68;54.25
17711;BME280;8975;57.718;12.134;2022-10-16T12:37:25;115940.22;;;-142.68;52.67
17711;BME280;8975;57.718;12.134;2022-10-16T12:39:53;115940.22;;;-142.68;52.73
17711;BME280;8975;57.718;12.134;2022-10-16T12:44:46;115940.22;;;-142.68;53.33
17711;BME280;8975;57.718;12.134;2022-10-16T12:47:46;115940.22;;;-142.68;54.25
17711;BME280;8975;57.718;12.134;2022-10-16T12:52:48;115940.22;;;-142.68;54.01
17711;BME280;8975;57.718;12.134;2022-10-16T12:55:19;115940.22;;;-142.68;54.02
17711;BME280;8975;57.718;12.134;2022-10-16T13:00:26;115940.22;;;-142.68;54.03
17711;BME280;8975;57.718;12.134;2022-10-16T13:19:38;115940.22;;;-142.68;55.56
17711;BME280;8975;57.718;12.134;2022-10-16T13:25:22;115940.22;;;-142.68;54.94
17711;BME280;8975;57.718;12.134;2022-10-16T13:27:56;115940.22;;;-142.68;54.12
17711;BME280;8975;57.718;12.134;2022-10-16T13:30:53;115940.22;;;-142.68;54.71
17711;BME280;8975;57.718;12.134;2022-10-16T13:33:35;115940.22;;;-142.68;54.48
17711;BME280;8975;57.718;12.134;2022-10-16T13:36:02;115940.22;;;-142.68;54.15
17711;BME280;8975;57.718;12.134;2022-10-16T13:38:31;115940.22;;;-142.68;54.35
17711;BME280;8975;57.718;12.134;2022-10-16T13:40:58;115940.22;;;-142.68;54.04
17711;BME280;8975;57.718;12.134;2022-10-16T13:43:32;115940.22;;;-142.68;54.99
17711;BME280;8975;57.718;12.134;2022-10-16T13:46:02;115940.22;;;-142.68;54.02
17711;BME280;8975;57.718;12.134;2022-10-16T13:48:29;115940.22;;;-142.68;54.20
17711;BME280;8975;57.718;12.134;2022-10-16T13:51:01;115940.22;;;-142.68;54.62
17711;BME280;8975;57.718;12.134;2022-10-16T13:53:27;115940.22;;;-142.68;54.45
17711;BME280;8975;57.718;12.134;2022-10-16T13:55:52;115940.22;;;-142.68;53.62
17711;BME280;8975;57.718;12.134;2022-10-16T13:58:18;115940.22;;;-142.68;53.78
17711;BME280;8975;57.718;12.134;2022-10-16T14:01:40;115940.22;;;-142.68;52.85
17711;BME280;8975;57.718;12.134;2022-10-16T14:03:39;115940.22;;;-142.68;52.77
17711;BME280;8975;57.718;12.134;2022-10-16T14:06:12;115940.22;;;-142.68;53.63
17711;BME280;8975;57.718;12.134;2022-10-16T14:08:42;115940.22;;;-142.68;53.80
17711;BME280;8975;57.718;12.134;2022-10-16T14:11:08;115940.22;;;-142.68;52.97
17711;BME280;8975;57.718;12.134;2022-10-16T14:13:38;115940.22;;;-142.68;52.59
17711;BME280;8975;57.718;12.134;2022-10-16T14:16:09;115940.22;;;-142.68;52.57
17711;BME280;8975;57.718;12.134;2022-10-16T14:18:37;115940.22;;;-142.68;52.90
17711;BME280;8975;57.718;12.134;2022-10-16T14:21:06;115940.22;;;-142.68;52.85
17711;BME280;8975;57.718;12.134;2022-10-16T14:23:36;115940.22;;;-142.68;52.63
17711;BME280;8975;57.718;12.134;2022-10-16T14:26:12;115940.22;;;-142.68;51.82
17711;BME280;8975;57.718;12.134;2022-10-16T14:28:39;115940.22;;;-142.68;52.14
17711;BME280;8975;57.718;12.134;2022-10-16T14:31:28;115940.22;;;-142.68;51.99
17711;BME280;8975;57.718;12.134;2022-10-16T14:33:54;115940.22;;;-142.68;52.22
17711;BME280;8975;57.718;12.134;2022-10-16T14:36:21;115940.22;;;-142.68;52.14